Ana Sayfa
METAR-TAF:

METAR-TAF

Havaalanları :

Pemba, Mozambik

Enlem: 12-59S, Boylam: 040-32E, yükseklik: 101 m

Güncel hava durumu gözlemi

Rapor saat 08:00 UTC de 1 saat ve 22 dakika önce yapıldı.
Rüzgar güneydan 11 kt
Sıcaklık 28°C
Nem 70%
Basınç 1018 hPa
Görüş mesafesi 10 km veya daha fazla
2000 ft yükseklikte parçalı bulutlu

METAR: FQPB 240800Z 18011KT 9999 SCT020 28/22 Q1018

Saat: 11:22 (09:22 UTC)

Tahmin

Rapor saat 04:00 UTC de 5 saat ve 22 dakika önce yapıldı.
Ayın 24'si saat 06 UTC'den ayın 25'si saat 06 UTC'ye kadar geçerli Tahmin
Rüzgar güney/güneydoğudan 12 kt
Görüş mesafesi 10 km veya daha fazla
2000 ft yükseklikte parçalı bulutlu
Dönüşüyor
ayın 24'si saat 12 UTC'den ayın 24'si saat 14 UTC'ye kadar
Rüzgar doğudan 12 kt
Dönüşüyor
ayın 24'si saat 18 UTC'den ayın 24'si saat 20 UTC'ye kadar
Rüzgar güneybatıdan 10 kt

TAF: FQPB 240400Z 2406/2506 16012KT 9999 SCT020 TX29/2413Z TN21/2503Z BECMG 2412/2414 10012KT BECMG 2418/2420 23010KT

4.000'den fazla havaalanı için hava durumu gözlemleri ve tahminleri (METAR ve TAF raporları).

Kullanılabilir istasyonlar harita üzerinde sarı ve kırmızı noktalarla gösterilir.

İstasyonun adını görmek için fareyi noktanın üzerinde gezdirin.

Sonrasında hava gözlem ve tahminlerini görmek için tıklayın.

Haritayı değiştirmek için: yaklaştırmak için siyah artı işaretli yeşil düğmeye ve uzaklaştırmak için de eksi işaretli düğmeye hızla tıklayın; bitişik haritalar için yeşil okları kullanın.


METAR-TAF: